Time;durP1;ratioP1;P1;durP2;ratioP2;P2;SDS_P1;SDS_P2;PMS_P1;PMS_P2;Temp;Humidity;BMP_temperature;BMP_pressure;BME280_temperature;BME280_humidity;BME280_pressure;Samples;Min_cycle;Max_cycle;Signal;HPM_P1;HPM_P2
2022/11/05 00:09:29;;;;;;;1.70;1.60;;;;;;;;;;4955188;28;20208;-75
2022/11/05 00:17:26;;;;;;;1.47;1.37;;;;;;;;;;4954454;28;20194;-75
2022/11/05 00:19:51;;;;;;;2.77;2.00;;;;;;;;;;4963653;28;20182;-75
2022/11/05 00:25:13;;;;;;;1.80;1.70;;;;;;;;;;4951497;28;20291;-75
2022/11/05 00:27:38;;;;;;;1.60;1.50;;;;;;;;;;4955855;28;20181;-75
2022/11/05 00:30:03;;;;;;;1.70;1.60;;;;;;;;;;4955519;28;20264;-75
2022/11/05 00:32:29;;;;;;;2.30;1.60;;;;;;;;;;4953640;28;20198;-75
2022/11/05 00:34:54;;;;;;;2.20;1.70;;;;;;;;;;4952868;29;20279;-76
2022/11/05 00:37:19;;;;;;;1.80;1.70;;;;;;;;;;4948162;28;20191;-75
2022/11/05 00:39:44;;;;;;;3.10;1.30;;;;;;;;;;4947536;28;20497;-75
2022/11/05 00:44:59;;;;;;;1.90;1.80;;;;;;;;;;4958457;28;20267;-74
2022/11/05 00:50:09;;;;;;;2.57;2.30;;;;;;;;;;4953824;29;20202;-75
2022/11/05 00:55:18;;;;;;;2.43;2.23;;;;;;;;;;4952039;28;20247;-75
2022/11/05 00:57:44;;;;;;;2.20;2.00;;;;;;;;;;4956014;28;20292;-75
2022/11/05 01:00:10;;;;;;;2.90;2.60;;;;;;;;;;4958686;28;20339;-75
2022/11/05 01:02:35;;;;;;;2.50;2.30;;;;;;;;;;4952625;28;20193;-75
2022/11/05 01:05:01;;;;;;;4.37;2.27;;;;;;;;;;4953289;28;20191;-75
2022/11/05 01:07:26;;;;;;;2.60;2.40;;;;;;;;;;4952360;29;20272;-75
2022/11/05 01:09:51;;;;;;;3.83;3.47;;;;;;;;;;4954002;28;20235;-75
2022/11/05 01:12:16;;;;;;;3.90;3.60;;;;;;;;;;4951458;28;20217;-75
2022/11/05 01:14:41;;;;;;;3.93;3.53;;;;;;;;;;4968596;28;20267;-75
2022/11/05 01:17:06;;;;;;;4.13;3.73;;;;;;;;;;4955755;28;20185;-75
2022/11/05 01:19:32;;;;;;;3.50;3.03;;;;;;;;;;4956217;28;20189;-75
2022/11/05 01:21:57;;;;;;;4.27;3.03;;;;;;;;;;4964076;28;20316;-75
2022/11/05 01:24:22;;;;;;;3.77;3.47;;;;;;;;;;4951518;28;20183;-75
2022/11/05 01:26:47;;;;;;;3.50;3.20;;;;;;;;;;4951131;28;20209;-75
2022/11/05 01:29:13;;;;;;;4.33;3.27;;;;;;;;;;4951609;28;21150;-75
2022/11/05 01:31:38;;;;;;;3.23;2.93;;;;;;;;;;4954320;28;20180;-75
2022/11/05 01:34:03;;;;;;;3.67;3.30;;;;;;;;;;4952345;28;20276;-75
2022/11/05 01:36:28;;;;;;;3.83;3.47;;;;;;;;;;4964532;28;20180;-75
2022/11/05 01:38:53;;;;;;;3.50;3.20;;;;;;;;;;4952875;29;20177;-75
2022/11/05 01:41:19;;;;;;;3.23;3.03;;;;;;;;;;4948796;28;20192;-75
2022/11/05 01:43:50;;;;;;;3.60;3.30;;;;;;;;;;4952227;28;20296;-75
2022/11/05 01:46:18;;;;;;;3.13;2.93;;;;;;;;;;4950657;29;20229;-75
2022/11/05 01:48:45;;;;;;;2.90;2.70;;;;;;;;;;4952591;28;20173;-76
2022/11/05 01:51:16;;;;;;;3.00;2.80;;;;;;;;;;4952177;29;20200;-75
2022/11/05 01:53:41;;;;;;;3.53;3.07;;;;;;;;;;4957574;28;20176;-75
2022/11/05 01:56:08;;;;;;;3.43;3.13;;;;;;;;;;4952396;29;20194;-75
2022/11/05 01:58:41;;;;;;;3.57;2.70;;;;;;;;;;4951513;28;20174;-75
2022/11/05 02:01:06;;;;;;;2.63;2.43;;;;;;;;;;4952704;28;20263;-75
2022/11/05 02:03:31;;;;;;;2.57;2.37;;;;;;;;;;4955372;28;20201;-75
2022/11/05 02:05:57;;;;;;;2.20;2.00;;;;;;;;;;4941308;28;20189;-75
2022/11/05 02:08:33;;;;;;;3.23;2.20;;;;;;;;;;4952432;29;20180;-75
2022/11/05 02:10:58;;;;;;;2.50;2.30;;;;;;;;;;4952504;28;20196;-75
2022/11/05 02:13:24;;;;;;;2.43;2.23;;;;;;;;;;4953745;28;20180;-75
2022/11/05 02:16:02;;;;;;;2.60;2.40;;;;;;;;;;4967948;28;20185;-75
2022/11/05 02:18:32;;;;;;;2.37;2.17;;;;;;;;;;4951996;28;20188;-75
2022/11/05 02:21:19;;;;;;;2.80;2.60;;;;;;;;;;4952646;28;20184;-75
2022/11/05 02:23:52;;;;;;;3.00;2.80;;;;;;;;;;4965257;28;20212;-75
2022/11/05 02:26:36;;;;;;;3.60;3.17;;;;;;;;;;4952349;28;20173;-75
2022/11/05 02:29:26;;;;;;;5.80;4.03;;;;;;;;;;4967204;28;20200;-75
2022/11/05 02:31:57;;;;;;;15.43;5.27;;;;;;;;;;4946727;29;20191;-75
2022/11/05 02:34:37;;;;;;;17.13;6.40;;;;;;;;;;4964670;28;20326;-75
2022/11/05 02:37:14;;;;;;;6.37;5.77;;;;;;;;;;4956166;28;20193;-75
2022/11/05 02:39:40;;;;;;;6.30;5.03;;;;;;;;;;4953143;28;20557;-75
2022/11/05 02:42:19;;;;;;;5.15;4.65;;;;;;;;;;4967553;28;20249;-75
2022/11/05 02:44:59;;;;;;;4.87;4.37;;;;;;;;;;4964196;28;20275;-75
2022/11/05 02:47:41;;;;;;;6.07;5.17;;;;;;;;;;4949535;28;20263;-75
2022/11/05 02:50:23;;;;;;;5.67;4.23;;;;;;;;;;4967562;28;20200;-75
2022/11/05 02:53:00;;;;;;;4.97;4.43;;;;;;;;;;4950167;28;20207;-75
2022/11/05 02:55:32;;;;;;;4.83;4.37;;;;;;;;;;4949897;28;20189;-75
2022/11/05 02:57:58;;;;;;;5.13;4.53;;;;;;;;;;4955181;28;20193;-75
2022/11/05 03:00:42;;;;;;;4.77;4.33;;;;;;;;;;4967436;28;20183;-75
2022/11/05 03:03:20;;;;;;;4.60;4.10;;;;;;;;;;4951539;28;20229;-75
2022/11/05 03:05:54;;;;;;;5.03;4.53;;;;;;;;;;4958870;28;20195;-75
2022/11/05 03:08:25;;;;;;;4.83;4.43;;;;;;;;;;4951941;28;20184;-75
2022/11/05 03:11:00;;;;;;;4.87;4.33;;;;;;;;;;4968667;28;20192;-75
2022/11/05 03:13:34;;;;;;;4.93;3.63;;;;;;;;;;4952871;28;20196;-75
2022/11/05 03:16:01;;;;;;;3.50;3.20;;;;;;;;;;4952384;28;20250;-75
2022/11/05 03:18:34;;;;;;;3.20;2.90;;;;;;;;;;4951382;28;20272;-75
2022/11/05 03:21:10;;;;;;;2.30;2.10;;;;;;;;;;4963093;28;20267;-75
2022/11/05 03:23:41;;;;;;;2.30;2.10;;;;;;;;;;4948799;28;20208;-75
2022/11/05 03:26:12;;;;;;;1.90;1.80;;;;;;;;;;4950386;29;20172;-75
2022/11/05 03:28:39;;;;;;;1.90;1.50;;;;;;;;;;4965279;28;20268;-75
2022/11/05 03:31:05;;;;;;;1.30;1.20;;;;;;;;;;4967776;28;20272;-75
2022/11/05 03:33:31;;;;;;;1.87;1.40;;;;;;;;;;4955510;28;20275;-75
2022/11/05 03:35:59;;;;;;;1.07;1.07;;;;;;;;;;4967122;28;20282;-75
2022/11/05 03:38:29;;;;;;;1.37;1.27;;;;;;;;;;4964948;28;20205;-75
2022/11/05 03:40:56;;;;;;;1.37;1.27;;;;;;;;;;4950800;28;20178;-75
2022/11/05 03:43:23;;;;;;;1.47;1.37;;;;;;;;;;4952011;28;20216;-76
2022/11/05 03:46:11;;;;;;;1.70;1.50;;;;;;;;;;4969442;28;20209;-75
2022/11/05 03:48:39;;;;;;;1.50;1.40;;;;;;;;;;4944953;28;20350;-75
2022/11/05 03:51:13;;;;;;;2.53;2.33;;;;;;;;;;4954621;28;20191;-75
2022/11/05 03:53:54;;;;;;;3.27;2.97;;;;;;;;;;4951186;28;20181;-76
2022/11/05 03:56:38;;;;;;;3.43;3.13;;;;;;;;;;4954498;29;20188;-75
2022/11/05 03:59:04;;;;;;;4.10;3.70;;;;;;;;;;4969634;28;20185;-75
2022/11/05 04:01:30;;;;;;;6.87;4.47;;;;;;;;;;4971283;28;20196;-75
2022/11/05 04:03:55;;;;;;;6.57;4.73;;;;;;;;;;4951998;28;20236;-75
2022/11/05 04:14:32;;;;;;;4.70;3.87;;;;;;;;;;4954196;28;20272;-75
2022/11/05 04:17:08;;;;;;;4.13;3.50;;;;;;;;;;4969751;28;20271;-75
2022/11/05 04:25:19;;;;;;;3.33;3.03;;;;;;;;;;4952727;28;20475;-75
2022/11/05 04:27:45;;;;;;;2.70;2.50;;;;;;;;;;4955177;28;20208;-75
2022/11/05 04:30:17;;;;;;;2.27;2.07;;;;;;;;;;4967149;28;20184;-75
2022/11/05 04:33:02;;;;;;;4.37;1.97;;;;;;;;;;4970404;28;20201;-75
2022/11/05 04:35:29;;;;;;;1.93;1.63;;;;;;;;;;4951746;28;20188;-75
2022/11/05 04:37:54;;;;;;;1.90;1.70;;;;;;;;;;4953989;28;20197;-75
2022/11/05 04:40:20;;;;;;;1.97;1.77;;;;;;;;;;4953838;28;20181;-75
2022/11/05 04:42:45;;;;;;;1.53;1.43;;;;;;;;;;4967479;28;20205;-75
2022/11/05 04:45:10;;;;;;;1.03;1.03;;;;;;;;;;4956553;28;20197;-76
2022/11/05 04:47:35;;;;;;;1.17;1.13;;;;;;;;;;4956468;28;20217;-76
2022/11/05 04:50:00;;;;;;;1.47;1.37;;;;;;;;;;4965785;28;20184;-75
2022/11/05 04:52:26;;;;;;;1.73;1.63;;;;;;;;;;4951706;28;20181;-75
2022/11/05 04:54:51;;;;;;;1.47;1.37;;;;;;;;;;4953984;28;20207;-75
2022/11/05 04:57:16;;;;;;;2.97;1.80;;;;;;;;;;4951564;28;20201;-75
2022/11/05 04:59:41;;;;;;;2.60;2.40;;;;;;;;;;4953485;28;20189;-76
2022/11/05 05:02:06;;;;;;;2.57;2.30;;;;;;;;;;4968888;28;20276;-75
2022/11/05 05:04:32;;;;;;;2.67;2.37;;;;;;;;;;4953491;28;20191;-75
2022/11/05 05:06:57;;;;;;;3.73;3.30;;;;;;;;;;4951814;28;20195;-75
2022/11/05 05:09:22;;;;;;;5.53;3.30;;;;;;;;;;4953910;28;20270;-75
2022/11/05 05:11:47;;;;;;;4.20;3.43;;;;;;;;;;4966569;28;20192;-76
2022/11/05 05:14:12;;;;;;;4.53;4.10;;;;;;;;;;4954492;28;20196;-75
2022/11/05 05:16:38;;;;;;;4.30;3.90;;;;;;;;;;4948409;28;20183;-75
2022/11/05 05:19:03;;;;;;;4.77;3.40;;;;;;;;;;4966066;28;20182;-75
2022/11/05 05:21:37;;;;;;;5.40;4.80;;;;;;;;;;4976424;28;20179;-75
2022/11/05 05:24:03;;;;;;;4.80;4.30;;;;;;;;;;4954496;28;20192;-75
2022/11/05 05:26:28;;;;;;;4.00;3.60;;;;;;;;;;4968376;28;20184;-75
2022/11/05 05:28:54;;;;;;;3.50;2.43;;;;;;;;;;4951628;28;20183;-75
2022/11/05 05:31:20;;;;;;;3.40;3.10;;;;;;;;;;4950937;28;20254;-75
2022/11/05 05:33:45;;;;;;;4.20;2.53;;;;;;;;;;4956520;28;20252;-75
2022/11/05 05:36:10;;;;;;;3.67;3.10;;;;;;;;;;4951684;29;21162;-75
2022/11/05 05:38:35;;;;;;;4.07;3.57;;;;;;;;;;4952685;29;20181;-75
2022/11/05 05:41:00;;;;;;;5.90;4.10;;;;;;;;;;4950716;28;20198;-75
2022/11/05 05:43:30;;;;;;;3.20;2.90;;;;;;;;;;4950622;28;20248;-76
2022/11/05 05:45:56;;;;;;;5.40;4.10;;;;;;;;;;4951270;28;20204;-75
2022/11/05 05:48:21;;;;;;;5.17;4.43;;;;;;;;;;4950282;28;20193;-75
2022/11/05 05:50:46;;;;;;;3.27;3.00;;;;;;;;;;4953204;28;20192;-75
2022/11/05 05:53:12;;;;;;;5.03;4.30;;;;;;;;;;4952201;28;20187;-75
2022/11/05 05:55:37;;;;;;;5.97;5.00;;;;;;;;;;4953184;28;20195;-75
2022/11/05 05:58:02;;;;;;;2.63;2.43;;;;;;;;;;4952981;28;20186;-75
2022/11/05 06:00:27;;;;;;;6.23;4.97;;;;;;;;;;4951081;29;20183;-75
2022/11/05 06:02:54;;;;;;;4.43;3.53;;;;;;;;;;4949465;28;20312;-76
2022/11/05 06:05:19;;;;;;;4.80;4.30;;;;;;;;;;4951400;29;20191;-75
2022/11/05 06:07:44;;;;;;;6.07;5.50;;;;;;;;;;4952764;28;20185;-75
2022/11/05 06:10:09;;;;;;;8.77;5.80;;;;;;;;;;4951863;28;20239;-76
2022/11/05 06:12:34;;;;;;;9.17;7.17;;;;;;;;;;4953473;28;20242;-76
2022/11/05 06:15:00;;;;;;;76.20;9.33;;;;;;;;;;4951949;28;20200;-76
2022/11/05 06:17:25;;;;;;;20.67;4.93;;;;;;;;;;4951151;28;20244;-76
2022/11/05 06:19:50;;;;;;;39.57;9.03;;;;;;;;;;4948764;28;20188;-76
2022/11/05 06:22:15;;;;;;;11.03;6.07;;;;;;;;;;4950282;29;20207;-76
2022/11/05 06:24:41;;;;;;;5.33;4.77;;;;;;;;;;4952133;28;20185;-76
2022/11/05 06:27:06;;;;;;;6.07;4.27;;;;;;;;;;4953719;28;20181;-75
2022/11/05 06:29:31;;;;;;;3.93;2.77;;;;;;;;;;4950561;28;20263;-75
2022/11/05 06:31:56;;;;;;;3.93;3.53;;;;;;;;;;4951765;29;20221;-75
2022/11/05 06:34:21;;;;;;;4.33;3.93;;;;;;;;;;4966956;28;20189;-76
2022/11/05 06:36:46;;;;;;;4.73;3.73;;;;;;;;;;4949720;28;20260;-76
2022/11/05 06:39:12;;;;;;;4.67;3.40;;;;;;;;;;4965050;28;20191;-76
2022/11/05 06:41:37;;;;;;;3.80;3.50;;;;;;;;;;4951022;28;20286;-75
2022/11/05 06:44:02;;;;;;;3.53;2.67;;;;;;;;;;4952559;28;20215;-76
2022/11/05 06:46:27;;;;;;;3.77;3.07;;;;;;;;;;4948742;29;20323;-75
2022/11/05 06:48:53;;;;;;;3.40;3.10;;;;;;;;;;4953701;28;20190;-76
2022/11/05 06:51:18;;;;;;;5.87;3.10;;;;;;;;;;4950943;28;20191;-76
2022/11/05 06:53:43;;;;;;;5.17;3.20;;;;;;;;;;4951428;28;20208;-76
2022/11/05 06:56:09;;;;;;;2.63;2.37;;;;;;;;;;4953979;28;20235;-76
2022/11/05 06:58:34;;;;;;;3.67;3.37;;;;;;;;;;4948838;29;20184;-76
2022/11/05 07:01:00;;;;;;;2.83;2.63;;;;;;;;;;4950456;28;20187;-75
2022/11/05 07:03:25;;;;;;;2.63;2.27;;;;;;;;;;4951677;28;21856;-76
2022/11/05 07:05:50;;;;;;;2.43;2.07;;;;;;;;;;4953675;28;20267;-76
2022/11/05 07:08:16;;;;;;;3.03;2.73;;;;;;;;;;4949194;28;20240;-75
2022/11/05 07:10:41;;;;;;;2.70;2.43;;;;;;;;;;4950849;28;20252;-75
2022/11/05 07:13:07;;;;;;;4.23;2.23;;;;;;;;;;4952131;28;20215;-75
2022/11/05 07:15:32;;;;;;;3.77;2.70;;;;;;;;;;4951455;28;20184;-75
2022/11/05 07:17:58;;;;;;;4.53;3.60;;;;;;;;;;4947757;28;20197;-76
2022/11/05 07:20:23;;;;;;;4.10;3.03;;;;;;;;;;4968251;28;20184;-76
2022/11/05 07:22:49;;;;;;;3.33;2.60;;;;;;;;;;4951299;28;20203;-76
2022/11/05 07:25:14;;;;;;;2.93;2.33;;;;;;;;;;4952100;28;20178;-76
2022/11/05 07:27:39;;;;;;;3.10;2.80;;;;;;;;;;4955178;28;20267;-76
2022/11/05 07:30:06;;;;;;;2.73;2.53;;;;;;;;;;4954719;28;20331;-76
2022/11/05 07:32:35;;;;;;;4.30;2.70;;;;;;;;;;4970911;28;20179;-76
2022/11/05 07:35:00;;;;;;;2.70;2.50;;;;;;;;;;4967298;28;20282;-76
2022/11/05 07:37:25;;;;;;;2.90;2.27;;;;;;;;;;4951519;28;20271;-76
2022/11/05 07:39:51;;;;;;;3.00;2.37;;;;;;;;;;4952994;29;20185;-76
2022/11/05 07:42:16;;;;;;;2.80;2.57;;;;;;;;;;4953678;28;20206;-76
2022/11/05 07:44:41;;;;;;;4.10;2.03;;;;;;;;;;4953391;28;20201;-76
2022/11/05 07:47:06;;;;;;;2.90;2.53;;;;;;;;;;4956282;28;20421;-76
2022/11/05 07:49:31;;;;;;;2.70;2.50;;;;;;;;;;4953234;28;20176;-75
2022/11/05 07:51:56;;;;;;;2.57;2.30;;;;;;;;;;4954282;28;20178;-76
2022/11/05 07:54:25;;;;;;;2.90;2.60;;;;;;;;;;4953895;28;20180;-76
2022/11/05 07:56:50;;;;;;;2.50;1.83;;;;;;;;;;4951881;28;20194;-76
2022/11/05 07:59:15;;;;;;;3.60;3.07;;;;;;;;;;4966694;28;20208;-76
2022/11/05 08:01:40;;;;;;;3.80;3.30;;;;;;;;;;4951477;28;20192;-76
2022/11/05 08:04:06;;;;;;;3.57;2.70;;;;;;;;;;4965228;28;20188;-77
2022/11/05 08:06:31;;;;;;;3.70;3.00;;;;;;;;;;4966011;28;20198;-75
2022/11/05 08:08:56;;;;;;;3.03;2.73;;;;;;;;;;4949925;28;20178;-76
2022/11/05 08:11:21;;;;;;;6.37;4.03;;;;;;;;;;4955330;28;20185;-76
2022/11/05 08:13:46;;;;;;;3.73;3.00;;;;;;;;;;4962446;28;20179;-76
2022/11/05 08:16:12;;;;;;;3.40;3.03;;;;;;;;;;4951354;28;20183;-76
2022/11/05 08:18:38;;;;;;;3.60;3.30;;;;;;;;;;4969893;28;20193;-75
2022/11/05 08:21:04;;;;;;;3.60;3.30;;;;;;;;;;4948865;28;20244;-76
2022/11/05 08:23:30;;;;;;;5.40;3.33;;;;;;;;;;4950167;28;20200;-76
2022/11/05 08:25:56;;;;;;;3.67;3.30;;;;;;;;;;4958570;28;20185;-76
2022/11/05 08:28:22;;;;;;;4.13;2.73;;;;;;;;;;4953976;28;20179;-75
2022/11/05 08:30:48;;;;;;;3.90;3.10;;;;;;;;;;4953823;28;20280;-76
2022/11/05 08:33:13;;;;;;;2.17;1.97;;;;;;;;;;4955341;28;20195;-76
2022/11/05 08:35:38;;;;;;;4.70;3.50;;;;;;;;;;4952440;28;20538;-76
2022/11/05 08:38:05;;;;;;;6.80;6.10;;;;;;;;;;4958142;28;20181;-76
2022/11/05 08:40:31;;;;;;;12.73;9.43;;;;;;;;;;4956539;28;20182;-76
2022/11/05 08:42:57;;;;;;;4.80;4.13;;;;;;;;;;4956205;28;20225;-76
2022/11/05 08:45:23;;;;;;;4.70;3.57;;;;;;;;;;4955627;28;20228;-76
2022/11/05 08:47:48;;;;;;;7.70;5.13;;;;;;;;;;4956477;28;20230;-76
2022/11/05 08:50:14;;;;;;;5.17;4.20;;;;;;;;;;4965648;28;20236;-76
2022/11/05 08:52:39;;;;;;;4.50;4.00;;;;;;;;;;4946006;28;20197;-76
2022/11/05 08:55:05;;;;;;;4.90;4.30;;;;;;;;;;4948614;28;20296;-76
2022/11/05 08:57:30;;;;;;;4.70;4.10;;;;;;;;;;4964989;28;20183;-76
2022/11/05 08:59:55;;;;;;;4.63;4.20;;;;;;;;;;4965017;28;20188;-76
2022/11/05 09:02:20;;;;;;;5.83;4.13;;;;;;;;;;4952138;28;20203;-75
2022/11/05 09:04:45;;;;;;;5.27;4.77;;;;;;;;;;4949049;28;21800;-76
2022/11/05 09:07:11;;;;;;;5.23;4.73;;;;;;;;;;4950083;28;20185;-76
2022/11/05 09:09:36;;;;;;;4.30;3.90;;;;;;;;;;4954211;28;20178;-76
2022/11/05 09:12:01;;;;;;;5.83;5.23;;;;;;;;;;4950832;28;20202;-76
2022/11/05 09:14:26;;;;;;;5.13;4.60;;;;;;;;;;4953566;28;20172;-75
2022/11/05 09:16:52;;;;;;;5.53;4.43;;;;;;;;;;4956644;28;20190;-76
2022/11/05 09:19:17;;;;;;;5.67;5.00;;;;;;;;;;4955049;28;20285;-75
2022/11/05 09:21:43;;;;;;;6.87;4.43;;;;;;;;;;4949871;28;20280;-75
2022/11/05 09:24:08;;;;;;;6.37;5.17;;;;;;;;;;4959939;28;20220;-75
2022/11/05 09:26:33;;;;;;;6.63;5.00;;;;;;;;;;4952074;28;20173;-75
2022/11/05 09:28:58;;;;;;;7.60;5.17;;;;;;;;;;4951182;28;20198;-74
2022/11/05 09:31:24;;;;;;;7.60;5.97;;;;;;;;;;4950307;29;20334;-75
2022/11/05 09:33:49;;;;;;;6.63;5.13;;;;;;;;;;4968577;28;20274;-75
2022/11/05 09:36:14;;;;;;;11.03;7.80;;;;;;;;;;4955661;28;20212;-75
2022/11/05 09:38:39;;;;;;;7.07;5.43;;;;;;;;;;4952943;28;20274;-75
2022/11/05 09:41:24;;;;;;;8.73;7.83;;;;;;;;;;4953260;28;20218;-75
2022/11/05 09:43:51;;;;;;;6.20;5.10;;;;;;;;;;4967331;28;20302;-75
2022/11/05 09:46:19;;;;;;;6.77;5.00;;;;;;;;;;4952384;28;20266;-75
2022/11/05 09:48:47;;;;;;;7.50;5.87;;;;;;;;;;4955243;28;20180;-75
2022/11/05 09:51:14;;;;;;;6.10;5.27;;;;;;;;;;4963419;28;20215;-75
2022/11/05 09:53:40;;;;;;;7.13;5.00;;;;;;;;;;4970174;28;20279;-75
2022/11/05 09:56:10;;;;;;;5.90;5.30;;;;;;;;;;4955384;28;20310;-75
2022/11/05 09:58:39;;;;;;;6.07;5.13;;;;;;;;;;4955161;28;20191;-75
2022/11/05 10:01:06;;;;;;;7.37;5.63;;;;;;;;;;4958941;28;20196;-75
2022/11/05 10:03:33;;;;;;;8.00;5.70;;;;;;;;;;4956714;28;20212;-75
2022/11/05 10:06:04;;;;;;;6.83;5.27;;;;;;;;;;4964230;28;20213;-75
2022/11/05 10:08:31;;;;;;;6.53;4.40;;;;;;;;;;4948693;28;20181;-75
2022/11/05 10:11:08;;;;;;;6.50;4.70;;;;;;;;;;4948586;28;20192;-75
2022/11/05 10:13:55;;;;;;;6.17;4.77;;;;;;;;;;4954061;28;20181;-75
2022/11/05 10:16:34;;;;;;;5.90;4.87;;;;;;;;;;4948025;28;20185;-75
2022/11/05 10:19:03;;;;;;;7.67;5.60;;;;;;;;;;4950970;28;20264;-75
2022/11/05 10:21:28;;;;;;;7.40;5.77;;;;;;;;;;4967215;28;20204;-75
2022/11/05 10:23:54;;;;;;;6.07;5.03;;;;;;;;;;4948338;28;20245;-75
2022/11/05 10:26:21;;;;;;;9.00;5.80;;;;;;;;;;4951774;29;20202;-75
2022/11/05 10:28:46;;;;;;;7.57;6.10;;;;;;;;;;4952365;28;20174;-75
2022/11/05 10:31:13;;;;;;;5.90;5.07;;;;;;;;;;4952034;28;20179;-75
2022/11/05 10:33:43;;;;;;;7.17;6.20;;;;;;;;;;4952300;29;20267;-75
2022/11/05 10:36:10;;;;;;;7.53;5.87;;;;;;;;;;4952969;28;20214;-75
2022/11/05 10:38:35;;;;;;;7.10;5.83;;;;;;;;;;4952040;28;20248;-74
2022/11/05 10:41:19;;;;;;;10.43;6.53;;;;;;;;;;4951191;28;20181;-75
2022/11/05 10:43:51;;;;;;;8.20;6.37;;;;;;;;;;4956848;28;20256;-75
2022/11/05 10:46:20;;;;;;;6.30;5.60;;;;;;;;;;4950533;28;20212;-75
2022/11/05 10:48:48;;;;;;;7.17;6.17;;;;;;;;;;4964394;28;20201;-75
2022/11/05 10:51:14;;;;;;;15.70;14.10;;;;;;;;;;4964286;28;20202;-75
2022/11/05 10:53:42;;;;;;;7.03;6.20;;;;;;;;;;4949643;28;20186;-75
2022/11/05 10:56:26;;;;;;;8.07;6.20;;;;;;;;;;4968262;28;20214;-75
2022/11/05 10:58:53;;;;;;;7.70;6.93;;;;;;;;;;4965239;28;20276;-75
2022/11/05 11:01:18;;;;;;;7.93;5.63;;;;;;;;;;4951021;29;20184;-75
2022/11/05 11:03:45;;;;;;;6.23;5.60;;;;;;;;;;4959425;28;20302;-75
2022/11/05 11:06:18;;;;;;;7.43;5.50;;;;;;;;;;4949984;29;20203;-75
2022/11/05 11:08:45;;;;;;;6.10;5.50;;;;;;;;;;4952236;28;20173;-75
2022/11/05 11:11:12;;;;;;;7.80;5.57;;;;;;;;;;4951953;28;20181;-75
2022/11/05 11:13:55;;;;;;;7.37;5.50;;;;;;;;;;4952278;28;20177;-75
2022/11/05 11:16:22;;;;;;;7.13;4.97;;;;;;;;;;4965373;28;20259;-75
2022/11/05 11:18:51;;;;;;;7.30;6.57;;;;;;;;;;4954938;28;20224;-75
2022/11/05 11:21:25;;;;;;;7.07;5.13;;;;;;;;;;4968430;28;20268;-75
2022/11/05 11:23:54;;;;;;;5.63;5.03;;;;;;;;;;4959114;28;20701;-75
2022/11/05 11:26:20;;;;;;;7.77;6.27;;;;;;;;;;4948867;28;20212;-75
2022/11/05 11:28:55;;;;;;;8.40;6.73;;;;;;;;;;4950282;28;20232;-75
2022/11/05 11:31:22;;;;;;;7.50;5.80;;;;;;;;;;4950985;28;20176;-74
2022/11/05 11:33:49;;;;;;;8.33;6.60;;;;;;;;;;4953096;28;20192;-75
2022/11/05 11:36:16;;;;;;;6.70;6.00;;;;;;;;;;4952375;28;20185;-75
2022/11/05 11:38:41;;;;;;;8.30;6.40;;;;;;;;;;4951520;29;20185;-75
2022/11/05 11:41:10;;;;;;;7.73;6.90;;;;;;;;;;4952054;28;20264;-75
2022/11/05 11:43:37;;;;;;;6.30;5.17;;;;;;;;;;4967006;28;20256;-75
2022/11/05 11:46:04;;;;;;;6.13;5.20;;;;;;;;;;4950431;28;20209;-75
2022/11/05 11:48:30;;;;;;;5.90;5.30;;;;;;;;;;4952602;28;20196;-75
2022/11/05 11:50:56;;;;;;;6.37;5.70;;;;;;;;;;4949634;29;20255;-75
2022/11/05 11:53:32;;;;;;;7.63;5.23;;;;;;;;;;4954796;28;20212;-75
2022/11/05 11:55:59;;;;;;;7.53;5.60;;;;;;;;;;4953431;28;20181;-75
2022/11/05 11:58:53;;;;;;;9.80;6.77;;;;;;;;;;4967468;28;20197;-75
2022/11/05 12:01:24;;;;;;;5.43;4.93;;;;;;;;;;4952729;28;20189;-75
2022/11/05 12:03:53;;;;;;;6.97;5.13;;;;;;;;;;4966944;28;20737;-75
2022/11/05 12:06:32;;;;;;;5.37;4.57;;;;;;;;;;4949232;28;20189;-75
2022/11/05 12:08:58;;;;;;;7.67;5.20;;;;;;;;;;4957547;28;20173;-75
2022/11/05 12:11:34;;;;;;;5.80;5.17;;;;;;;;;;4952966;28;20192;-75
2022/11/05 12:13:59;;;;;;;4.80;4.30;;;;;;;;;;4966411;28;20196;-75
2022/11/05 12:16:48;;;;;;;7.07;5.63;;;;;;;;;;4953823;28;20189;-75
2022/11/05 12:19:33;;;;;;;8.67;5.50;;;;;;;;;;4955629;28;20313;-74
2022/11/05 12:22:04;;;;;;;5.70;4.67;;;;;;;;;;4968057;28;20189;-75
2022/11/05 12:24:32;;;;;;;6.07;4.83;;;;;;;;;;4955667;28;20201;-75
2022/11/05 12:26:57;;;;;;;5.80;5.00;;;;;;;;;;4965950;28;20186;-75
2022/11/05 12:29:35;;;;;;;7.37;4.67;;;;;;;;;;4949493;28;20184;-75
2022/11/05 12:32:03;;;;;;;6.83;5.20;;;;;;;;;;4967434;28;20181;-75
2022/11/05 12:34:47;;;;;;;5.53;4.93;;;;;;;;;;4946754;28;20177;-75
2022/11/05 12:37:29;;;;;;;10.43;7.37;;;;;;;;;;4967833;28;20241;-75
2022/11/05 12:40:13;;;;;;;7.47;4.40;;;;;;;;;;4969454;28;20288;-75
2022/11/05 12:42:54;;;;;;;4.83;4.43;;;;;;;;;;4963694;28;20201;-75
2022/11/05 12:45:42;;;;;;;4.87;4.27;;;;;;;;;;4967859;28;20205;-75
2022/11/05 12:48:13;;;;;;;6.93;6.23;;;;;;;;;;4951914;28;20382;-75
2022/11/05 12:50:45;;;;;;;5.07;4.57;;;;;;;;;;4970264;28;20204;-75
2022/11/05 12:53:16;;;;;;;7.50;4.97;;;;;;;;;;4963779;28;20186;-75
2022/11/05 12:55:43;;;;;;;7.33;6.17;;;;;;;;;;4967227;28;20264;-75
2022/11/05 12:58:16;;;;;;;8.53;5.50;;;;;;;;;;4968060;28;20335;-75
2022/11/05 13:00:45;;;;;;;7.13;4.17;;;;;;;;;;4950306;28;20189;-74
2022/11/05 13:03:10;;;;;;;7.47;5.10;;;;;;;;;;4965928;28;20334;-75
2022/11/05 13:05:37;;;;;;;6.37;4.80;;;;;;;;;;4961748;28;20804;-75
2022/11/05 13:08:29;;;;;;;5.93;5.00;;;;;;;;;;4952704;28;20188;-75
2022/11/05 13:10:56;;;;;;;7.60;5.97;;;;;;;;;;4951938;28;20193;-75
2022/11/05 13:13:47;;;;;;;6.67;5.13;;;;;;;;;;4947375;28;20201;-75
2022/11/05 13:16:21;;;;;;;7.77;5.90;;;;;;;;;;4956104;28;20247;-75
2022/11/05 13:18:49;;;;;;;9.43;5.43;;;;;;;;;;4961346;28;20229;-75
2022/11/05 13:21:16;;;;;;;10.60;4.97;;;;;;;;;;4951728;28;20186;-75
2022/11/05 13:23:48;;;;;;;6.73;5.70;;;;;;;;;;4948534;28;20201;-75
2022/11/05 13:26:22;;;;;;;6.60;6.00;;;;;;;;;;4948169;28;20185;-75
2022/11/05 13:29:26;;;;;;;9.70;6.70;;;;;;;;;;4946599;28;20178;-75
2022/11/05 13:32:02;;;;;;;7.63;5.23;;;;;;;;;;4937998;28;20279;-75
2022/11/05 13:34:27;;;;;;;6.57;5.00;;;;;;;;;;4949248;28;20181;-75
2022/11/05 13:39:44;;;;;;;7.30;5.97;;;;;;;;;;4945084;28;20192;-75
2022/11/05 13:42:28;;;;;;;13.07;5.77;;;;;;;;;;4948182;28;20204;-75
2022/11/05 13:44:56;;;;;;;8.07;5.53;;;;;;;;;;4931689;28;20244;-75
2022/11/05 13:47:30;;;;;;;10.93;6.50;;;;;;;;;;4949689;28;20221;-75
2022/11/05 13:50:14;;;;;;;9.33;5.93;;;;;;;;;;4933230;29;20203;-75
2022/11/05 13:52:42;;;;;;;9.37;6.13;;;;;;;;;;4936524;28;20316;-75
2022/11/05 13:55:16;;;;;;;7.33;6.33;;;;;;;;;;4945920;28;20185;-75
2022/11/05 13:58:00;;;;;;;9.60;5.30;;;;;;;;;;4948033;28;20181;-75
2022/11/05 14:00:26;;;;;;;9.97;5.90;;;;;;;;;;4947709;28;20301;-75
2022/11/05 14:02:53;;;;;;;7.30;5.90;;;;;;;;;;4946465;28;20294;-75
2022/11/05 14:05:21;;;;;;;7.43;5.90;;;;;;;;;;4964282;28;20204;-74
2022/11/05 14:07:47;;;;;;;7.53;5.00;;;;;;;;;;4952334;28;20234;-75
2022/11/05 14:10:15;;;;;;;5.90;5.30;;;;;;;;;;4950784;28;20174;-75
2022/11/05 14:12:45;;;;;;;10.67;8.00;;;;;;;;;;4949142;28;20178;-75
2022/11/05 14:15:17;;;;;;;8.43;5.87;;;;;;;;;;4951715;29;20193;-75
2022/11/05 14:18:01;;;;;;;10.10;7.37;;;;;;;;;;4951452;28;20196;-75
2022/11/05 14:20:29;;;;;;;8.77;6.77;;;;;;;;;;4951564;28;20189;-75
2022/11/05 14:23:14;;;;;;;8.90;5.70;;;;;;;;;;4951515;28;20325;-75
2022/11/05 14:25:39;;;;;;;5.30;4.67;;;;;;;;;;4963601;28;20191;-75
2022/11/05 14:28:25;;;;;;;8.10;6.20;;;;;;;;;;4950933;28;20190;-75
2022/11/05 14:30:50;;;;;;;5.97;5.37;;;;;;;;;;4952151;28;20185;-75
2022/11/05 14:33:15;;;;;;;6.70;5.07;;;;;;;;;;4950977;29;20185;-74
2022/11/05 14:35:40;;;;;;;4.93;4.53;;;;;;;;;;4967635;28;20208;-74
2022/11/05 14:38:16;;;;;;;6.63;4.40;;;;;;;;;;4950188;28;20259;-75
2022/11/05 14:40:43;;;;;;;4.60;4.13;;;;;;;;;;4953368;28;20262;-74
2022/11/05 14:43:14;;;;;;;6.97;5.60;;;;;;;;;;4965201;28;20209;-75
2022/11/05 14:45:50;;;;;;;7.70;5.33;;;;;;;;;;4967424;28;20347;-75
2022/11/05 14:48:32;;;;;;;10.40;7.30;;;;;;;;;;4963406;28;20213;-75
2022/11/05 14:50:58;;;;;;;8.83;6.00;;;;;;;;;;4950849;28;20182;-75
2022/11/05 14:53:24;;;;;;;11.37;8.23;;;;;;;;;;4949273;29;20182;-74
2022/11/05 14:55:56;;;;;;;13.27;7.97;;;;;;;;;;4954096;28;20177;-75
2022/11/05 14:58:29;;;;;;;14.50;9.20;;;;;;;;;;4948919;28;20228;-75
2022/11/05 15:00:55;;;;;;;13.30;9.60;;;;;;;;;;4946597;28;20186;-75
2022/11/05 15:03:31;;;;;;;12.83;6.93;;;;;;;;;;4943645;28;20222;-75
2022/11/05 15:06:15;;;;;;;7.07;5.07;;;;;;;;;;4950704;28;20181;-75
2022/11/05 15:08:46;;;;;;;9.70;7.37;;;;;;;;;;4946841;29;20210;-75
2022/11/05 15:11:11;;;;;;;11.73;9.30;;;;;;;;;;4949305;28;20261;-75
2022/11/05 15:13:41;;;;;;;12.73;5.87;;;;;;;;;;4962612;28;20276;-75
2022/11/05 15:16:06;;;;;;;6.97;4.67;;;;;;;;;;4948218;28;20212;-74
2022/11/05 15:18:35;;;;;;;7.30;4.60;;;;;;;;;;4950157;28;20185;-75
2022/11/05 15:21:02;;;;;;;7.20;5.43;;;;;;;;;;4947052;28;20189;-75
2022/11/05 15:23:38;;;;;;;8.23;5.40;;;;;;;;;;4954518;28;20205;-75
2022/11/05 15:26:06;;;;;;;7.63;4.97;;;;;;;;;;4957904;28;20186;-75
2022/11/05 15:28:31;;;;;;;10.17;7.30;;;;;;;;;;4951948;28;20170;-75
2022/11/05 15:31:01;;;;;;;12.33;8.20;;;;;;;;;;4951332;28;20314;-75
2022/11/05 15:33:27;;;;;;;9.60;5.93;;;;;;;;;;4953841;28;20220;-75
2022/11/05 15:35:52;;;;;;;8.97;5.97;;;;;;;;;;4950751;29;20193;-75